createdAt,value
2019-05-01T00:00:37.894Z,29.93
2019-05-01T00:03:37.075Z,31.10
2019-05-01T00:06:05.594Z,29.90
2019-05-01T00:08:33.257Z,30.27
2019-05-01T00:11:00.892Z,31.83
2019-05-01T00:13:28.629Z,31.83
2019-05-01T00:15:56.649Z,31.17
2019-05-01T00:18:24.433Z,31.10
2019-05-01T00:20:52.071Z,29.37
2019-05-01T00:23:19.723Z,30.10
2019-05-01T00:25:47.378Z,31.27
2019-05-01T00:28:15.349Z,30.30
2019-05-01T00:30:42.960Z,33.03
2019-05-01T00:33:10.606Z,32.83
2019-05-01T00:35:38.281Z,30.27
2019-05-01T00:38:05.928Z,30.20
2019-05-01T00:40:33.614Z,32.03
2019-05-01T00:43:01.269Z,31.33
2019-05-01T00:45:28.921Z,31.97
2019-05-01T00:47:56.546Z,30.23
2019-05-01T00:50:24.194Z,32.13
2019-05-01T00:52:51.801Z,30.63
2019-05-01T00:55:38.175Z,30.40
2019-05-01T00:58:25.380Z,32.23
2019-05-01T01:01:06.579Z,33.07
2019-05-01T01:03:34.209Z,31.57
2019-05-01T01:06:02.118Z,32.43
2019-05-01T01:08:29.716Z,30.47
2019-05-01T01:10:57.492Z,30.87
2019-05-01T01:13:25.136Z,31.13
2019-05-01T01:15:52.759Z,30.60
2019-05-01T01:18:20.423Z,30.43
2019-05-01T01:20:48.131Z,31.83
2019-05-01T01:23:16.082Z,31.03
2019-05-01T01:25:43.741Z,30.57
2019-05-01T01:28:11.702Z,32.00
2019-05-01T01:30:39.348Z,34.00
2019-05-01T01:33:07.002Z,33.57
2019-05-01T01:35:34.674Z,33.67
2019-05-01T01:38:02.557Z,35.20
2019-05-01T01:40:30.448Z,34.07
2019-05-01T01:43:18.255Z,32.73
2019-05-01T01:45:47.636Z,30.20
2019-05-01T01:48:16.415Z,32.80
2019-05-01T01:50:45.708Z,31.30
2019-05-01T01:53:16.835Z,29.93
2019-05-01T01:55:45.747Z,29.97
2019-05-01T01:58:13.807Z,29.80
2019-05-01T02:01:16.764Z,29.37
2019-05-01T02:03:48.711Z,28.90
2019-05-01T02:06:16.483Z,30.33
2019-05-01T02:08:56.034Z,33.53
2019-05-01T02:11:13.965Z,29.20
2019-05-01T02:13:42.087Z,30.07
2019-05-01T02:16:09.757Z,29.67
2019-05-01T02:18:37.433Z,30.87
2019-05-01T02:21:05.202Z,30.03
2019-05-01T02:23:32.837Z,32.13
2019-05-01T02:26:01.274Z,29.97
2019-05-01T02:28:39.495Z,31.87
2019-05-01T02:31:26.955Z,31.93
2019-05-01T02:33:47.187Z,31.70
2019-05-01T02:36:15.844Z,33.03
2019-05-01T02:38:45.241Z,31.90
2019-05-01T02:41:15.092Z,35.10
2019-05-01T02:43:45.877Z,34.93
2019-05-01T02:46:16.074Z,35.13
2019-05-01T02:48:48.080Z,35.30
2019-05-01T02:51:16.766Z,34.73
2019-05-01T02:53:45.911Z,34.33
2019-05-01T02:56:27.512Z,36.27
2019-05-01T02:58:56.597Z,36.50
2019-05-01T03:01:24.531Z,37.00
2019-05-01T03:03:52.800Z,38.17
2019-05-01T03:06:21.059Z,38.27
2019-05-01T03:08:49.988Z,36.70
2019-05-01T03:11:17.808Z,34.30
2019-05-01T03:13:46.654Z,33.53
2019-05-01T03:16:16.289Z,34.60
2019-05-01T03:18:48.893Z,31.57
2019-05-01T03:21:24.379Z,33.10
2019-05-01T03:23:59.455Z,29.60
2019-05-01T03:26:27.339Z,31.03
2019-05-01T03:28:55.056Z,30.23
2019-05-01T03:31:22.878Z,29.40
2019-05-01T03:33:50.513Z,30.13
2019-05-01T03:36:18.286Z,29.37
2019-05-01T03:38:46.481Z,30.40
2019-05-01T03:41:14.575Z,30.40
2019-05-01T03:43:42.422Z,30.03
2019-05-01T03:46:10.199Z,28.00
2019-05-01T03:48:37.870Z,26.97
2019-05-01T03:51:05.652Z,27.63
2019-05-01T03:53:33.937Z,27.40
2019-05-01T03:56:01.626Z,27.53
2019-05-01T03:58:30.096Z,29.13
2019-05-01T04:01:29.235Z,27.70
2019-05-01T04:04:09.214Z,26.33
2019-05-01T04:06:36.995Z,25.47
2019-05-01T04:09:06.354Z,27.03
2019-05-01T04:11:34.299Z,26.37
2019-05-01T04:14:03.298Z,27.33
2019-05-01T04:16:31.084Z,27.77
2019-05-01T04:18:58.862Z,27.63
2019-05-01T04:21:31.325Z,27.23
2019-05-01T04:23:59.889Z,26.30
2019-05-01T04:26:27.579Z,28.70
2019-05-01T04:29:04.767Z,28.37
2019-05-01T04:32:00.810Z,25.80
2019-05-01T04:34:57.029Z,27.03
2019-05-01T04:37:25.946Z,27.03
2019-05-01T04:39:54.138Z,27.03
2019-05-01T04:42:22.681Z,25.50
2019-05-01T04:44:50.434Z,25.70
2019-05-01T04:47:18.633Z,25.13
2019-05-01T04:49:46.486Z,24.17
2019-05-01T04:52:14.512Z,25.80
2019-05-01T04:54:42.256Z,24.40
2019-05-01T04:57:10.326Z,24.50
2019-05-01T04:59:38.419Z,24.63
2019-05-01T05:02:09.224Z,23.13
2019-05-01T05:04:37.552Z,24.30
2019-05-01T05:07:05.261Z,25.17
2019-05-01T05:09:43.357Z,25.50
2019-05-01T05:12:17.581Z,23.70
2019-05-01T05:14:49.601Z,24.67
2019-05-01T05:17:20.216Z,25.03
2019-05-01T05:19:47.970Z,24.23
2019-05-01T05:22:16.648Z,23.77
2019-05-01T05:24:44.656Z,23.93
2019-05-01T05:27:12.943Z,25.37
2019-05-01T05:29:42.653Z,21.20
2019-05-01T05:32:12.799Z,21.33
2019-05-01T05:34:42.309Z,21.87
2019-05-01T05:37:18.230Z,22.73
2019-05-01T05:39:47.067Z,23.07
2019-05-01T05:42:15.033Z,22.90
2019-05-01T05:44:43.596Z,22.33
2019-05-01T05:47:11.466Z,22.13
2019-05-01T05:49:39.572Z,21.10
2019-05-01T05:52:28.422Z,21.30
2019-05-01T05:55:25.239Z,20.50
2019-05-01T05:58:24.680Z,19.97
2019-05-01T06:01:10.847Z,18.57
2019-05-01T06:04:06.912Z,19.50
2019-05-01T06:07:02.000Z,19.50
2019-05-01T06:09:58.516Z,18.30
2019-05-01T06:12:33.978Z,19.53
2019-05-01T06:15:22.445Z,20.10
2019-05-01T06:17:59.203Z,20.17
2019-05-01T06:20:47.734Z,19.40
2019-05-01T06:23:43.399Z,19.13
2019-05-01T06:26:31.951Z,19.03
2019-05-01T06:29:02.379Z,19.90
2019-05-01T06:31:30.689Z,20.43
2019-05-01T06:33:58.706Z,18.43
2019-05-01T06:36:26.360Z,19.03
2019-05-01T06:38:54.960Z,18.80
2019-05-01T06:41:24.209Z,17.83
2019-05-01T06:44:02.687Z,18.83
2019-05-01T06:46:50.929Z,18.43
2019-05-01T06:49:37.362Z,18.37
2019-05-01T06:52:17.455Z,17.53
2019-05-01T06:54:47.787Z,18.07
2019-05-01T06:57:14.598Z,18.30
2019-05-01T06:59:42.998Z,19.03
2019-05-01T07:02:15.759Z,18.70
2019-05-01T07:04:44.709Z,19.07
2019-05-01T07:07:25.240Z,19.67
2019-05-01T07:09:44.142Z,18.57
2019-05-01T07:12:24.002Z,18.07
2019-05-01T07:14:52.151Z,17.63
2019-05-01T07:17:20.574Z,17.97
2019-05-01T07:20:06.696Z,16.67
2019-05-01T07:22:37.192Z,17.97
2019-05-01T07:25:06.577Z,17.70
2019-05-01T07:27:34.535Z,17.17
2019-05-01T07:30:15.838Z,17.50
2019-05-01T07:32:42.784Z,17.60
2019-05-01T07:35:10.625Z,16.03
2019-05-01T07:37:38.466Z,17.43
2019-05-01T07:40:06.780Z,16.83
2019-05-01T07:42:36.487Z,16.50
2019-05-01T07:45:26.758Z,17.13
2019-05-01T07:47:54.639Z,16.80
2019-05-01T07:50:24.232Z,17.43
2019-05-01T07:52:53.945Z,17.97
2019-05-01T07:55:35.366Z,18.80
2019-05-01T07:58:05.070Z,17.23
2019-05-01T08:00:45.048Z,18.03
2019-05-01T08:03:12.839Z,18.23
2019-05-01T08:05:40.841Z,18.90
2019-05-01T08:08:09.926Z,18.47
2019-05-01T08:10:37.624Z,19.63
2019-05-01T08:13:05.313Z,21.27
2019-05-01T08:15:32.955Z,19.77
2019-05-01T08:18:24.069Z,19.90
2019-05-01T08:20:55.212Z,19.93
2019-05-01T08:23:23.026Z,19.13
2019-05-01T08:25:50.695Z,20.03
2019-05-01T08:28:27.594Z,20.80
2019-05-01T08:31:15.318Z,19.00
2019-05-01T08:34:04.316Z,21.20
2019-05-01T08:36:31.964Z,21.60
2019-05-01T08:38:59.698Z,19.60
2019-05-01T08:41:31.713Z,20.87
2019-05-01T08:43:56.829Z,21.23
2019-05-01T08:47:02.560Z,21.97
2019-05-01T08:49:42.226Z,20.87
2019-05-01T08:52:12.632Z,23.07
2019-05-01T08:54:37.463Z,20.73
2019-05-01T08:57:07.831Z,22.10
2019-05-01T08:59:34.605Z,21.03
2019-05-01T09:02:09.266Z,20.70
2019-05-01T09:04:32.445Z,21.90
2019-05-01T09:07:00.201Z,21.40
2019-05-01T09:09:27.836Z,20.37
2019-05-01T09:11:55.551Z,21.63
2019-05-01T09:14:23.391Z,22.43
2019-05-01T09:16:52.556Z,22.13
2019-05-01T09:19:20.388Z,22.93
2019-05-01T09:21:48.084Z,23.50
2019-05-01T09:24:15.742Z,22.20
2019-05-01T09:27:01.776Z,23.00
2019-05-01T09:29:36.828Z,22.33
2019-05-01T09:32:05.084Z,22.97
2019-05-01T09:34:34.316Z,21.87
2019-05-01T09:37:01.978Z,23.17
2019-05-01T09:39:30.359Z,23.43
2019-05-01T09:41:58.103Z,23.10
2019-05-01T09:44:25.798Z,23.73
2019-05-01T09:46:53.462Z,23.37
2019-05-01T09:49:21.737Z,22.83
2019-05-01T09:52:24.902Z,22.77
2019-05-01T09:55:00.048Z,24.60
2019-05-01T09:57:27.729Z,22.93
2019-05-01T09:59:55.376Z,22.83
2019-05-01T10:02:23.051Z,22.53
2019-05-01T10:04:50.734Z,23.07
2019-05-01T10:07:18.380Z,22.17
2019-05-01T10:09:47.227Z,21.17
2019-05-01T10:12:15.559Z,20.07
2019-05-01T10:14:43.231Z,21.77
2019-05-01T10:17:13.416Z,20.10
2019-05-01T10:19:40.389Z,20.67
2019-05-01T10:22:08.070Z,20.57
2019-05-01T10:24:37.640Z,21.40
2019-05-01T10:27:06.999Z,22.33
2019-05-01T10:29:56.926Z,21.00
2019-05-01T10:32:44.898Z,21.77
2019-05-01T10:35:43.039Z,22.43
2019-05-01T10:38:09.422Z,22.43
2019-05-01T10:40:37.067Z,21.57
2019-05-01T10:43:04.744Z,20.63
2019-05-01T10:45:32.388Z,20.13
2019-05-01T10:48:00.122Z,21.43
2019-05-01T10:50:27.774Z,20.70
2019-05-01T10:52:55.571Z,20.57
2019-05-01T10:55:23.610Z,19.77
2019-05-01T10:57:51.261Z,20.43
2019-05-01T11:00:19.027Z,20.57
2019-05-01T11:02:46.691Z,20.00
2019-05-01T11:05:14.502Z,20.20
2019-05-01T11:07:42.291Z,19.53
2019-05-01T11:10:10.457Z,20.23
2019-05-01T11:12:38.107Z,19.70
2019-05-01T11:15:07.202Z,19.83
2019-05-01T11:17:34.845Z,19.57
2019-05-01T11:20:02.540Z,20.17
2019-05-01T11:22:30.204Z,19.40
2019-05-01T11:24:57.891Z,18.70
2019-05-01T11:27:25.527Z,19.43
2019-05-01T11:29:53.228Z,21.00
2019-05-01T11:32:30.429Z,21.27
2019-05-01T11:35:23.598Z,21.63
2019-05-01T11:38:08.676Z,20.40
2019-05-01T11:40:48.895Z,22.00
2019-05-01T11:43:16.523Z,19.80
2019-05-01T11:45:44.197Z,19.90
2019-05-01T11:48:11.848Z,20.37
2019-05-01T11:50:39.570Z,20.93
2019-05-01T11:53:07.212Z,20.73
2019-05-01T11:55:34.845Z,20.07
2019-05-01T11:58:04.011Z,19.67
2019-05-01T12:00:31.676Z,20.67
2019-05-01T12:02:59.355Z,19.30
2019-05-01T12:05:27.047Z,19.70
2019-05-01T12:07:54.753Z,20.07
2019-05-01T12:10:22.382Z,20.10
2019-05-01T12:12:50.039Z,20.83
2019-05-01T12:15:18.182Z,19.57
2019-05-01T12:17:49.659Z,18.73
2019-05-01T12:20:18.879Z,19.37
2019-05-01T12:22:49.590Z,19.93
2019-05-01T12:25:17.002Z,20.43
2019-05-01T12:27:44.667Z,19.50
2019-05-01T12:30:14.283Z,19.73
2019-05-01T12:32:41.965Z,19.30
2019-05-01T12:35:09.624Z,19.07
2019-05-01T12:37:41.399Z,18.93
2019-05-01T12:40:12.448Z,20.13
2019-05-01T12:42:40.125Z,20.13
2019-05-01T12:45:10.132Z,19.03
2019-05-01T12:47:44.867Z,19.60
2019-05-01T12:50:13.186Z,19.10
2019-05-01T12:52:59.154Z,18.43
2019-05-01T12:56:04.499Z,20.83
2019-05-01T12:58:32.737Z,20.30
2019-05-01T13:01:00.415Z,21.30
2019-05-01T13:03:28.074Z,22.20
2019-05-01T13:05:55.811Z,20.90
2019-05-01T13:08:29.334Z,21.83
2019-05-01T13:10:58.336Z,22.97
2019-05-01T13:13:26.032Z,21.90
2019-05-01T13:15:56.365Z,22.03
2019-05-01T13:18:24.061Z,21.67
2019-05-01T13:20:51.725Z,21.97
2019-05-01T13:23:19.448Z,22.07
2019-05-01T13:25:47.844Z,20.80
2019-05-01T13:28:42.407Z,19.70
2019-05-01T13:31:21.557Z,19.23
2019-05-01T13:33:49.192Z,20.47
2019-05-01T13:36:16.875Z,20.70
2019-05-01T13:38:44.549Z,21.40
2019-05-01T13:41:39.849Z,20.20
2019-05-01T13:44:07.612Z,20.43
2019-05-01T13:46:37.893Z,19.70
2019-05-01T13:49:05.685Z,20.43
2019-05-01T13:51:33.322Z,21.40
2019-05-01T13:54:01.025Z,22.00
2019-05-01T13:56:28.660Z,20.43
2019-05-01T13:59:05.744Z,19.87
2019-05-01T14:01:33.495Z,19.87
2019-05-01T14:04:01.301Z,22.10
2019-05-01T14:06:28.964Z,21.47
2019-05-01T14:08:56.634Z,19.83
2019-05-01T14:11:33.176Z,19.63
2019-05-01T14:14:00.821Z,20.43
2019-05-01T14:16:28.524Z,20.93
2019-05-01T14:18:56.206Z,19.93
2019-05-01T14:21:38.167Z,20.90
2019-05-01T14:24:23.638Z,22.33
2019-05-01T14:26:57.020Z,21.57
2019-05-01T14:29:24.664Z,21.43
2019-05-01T14:31:52.396Z,22.40
2019-05-01T14:34:20.032Z,21.87
2019-05-01T14:36:49.777Z,21.77
2019-05-01T14:39:17.416Z,24.27
2019-05-01T14:41:45.125Z,22.27
2019-05-01T14:44:12.789Z,23.43
2019-05-01T14:46:40.508Z,22.77
2019-05-01T14:49:08.156Z,22.13
2019-05-01T14:51:36.060Z,22.67
2019-05-01T14:54:03.883Z,22.33
2019-05-01T14:56:31.536Z,21.63
2019-05-01T14:58:59.247Z,21.17
2019-05-01T15:01:26.955Z,21.53
2019-05-01T15:04:09.336Z,21.60
2019-05-01T15:06:37.129Z,22.37
2019-05-01T15:09:07.056Z,22.03
2019-05-01T15:11:34.867Z,21.20
2019-05-01T15:14:21.504Z,23.90
2019-05-01T15:17:08.641Z,22.03
2019-05-01T15:19:41.407Z,21.10
2019-05-01T15:22:09.118Z,22.33
2019-05-01T15:24:36.748Z,20.13
2019-05-01T15:27:04.410Z,20.07
2019-05-01T15:29:32.103Z,20.30
2019-05-01T15:31:59.745Z,20.43
2019-05-01T15:34:27.414Z,21.17
2019-05-01T15:36:55.085Z,21.87
2019-05-01T15:39:28.532Z,22.23
2019-05-01T15:42:14.387Z,19.43
2019-05-01T15:44:42.384Z,21.93
2019-05-01T15:47:10.054Z,21.87
2019-05-01T15:49:37.730Z,19.77
2019-05-01T15:52:05.405Z,22.23
2019-05-01T15:54:33.089Z,21.80
2019-05-01T15:57:00.763Z,21.43
2019-05-01T15:59:28.520Z,20.40
2019-05-01T16:01:56.245Z,19.90
2019-05-01T16:04:23.924Z,20.83
2019-05-01T16:06:51.638Z,20.37
2019-05-01T16:09:19.260Z,20.43
2019-05-01T16:12:12.184Z,21.83
2019-05-01T16:14:41.803Z,21.17
2019-05-01T16:17:09.485Z,21.47
2019-05-01T16:19:37.172Z,19.73
2019-05-01T16:22:04.864Z,20.63
2019-05-01T16:24:32.490Z,20.50
2019-05-01T16:27:00.305Z,21.93
2019-05-01T16:29:27.935Z,20.60
2019-05-01T16:31:55.611Z,20.57
2019-05-01T16:34:23.374Z,19.80
2019-05-01T16:36:51.066Z,21.57
2019-05-01T16:39:41.329Z,20.23
2019-05-01T16:42:09.071Z,22.10
2019-05-01T16:44:36.869Z,20.90
2019-05-01T16:47:04.525Z,19.80
2019-05-01T16:49:32.227Z,21.33
2019-05-01T16:51:59.942Z,21.00
2019-05-01T16:54:27.605Z,21.40
2019-05-01T16:56:57.384Z,21.50
2019-05-01T16:59:24.765Z,22.07
2019-05-01T17:02:14.633Z,21.90
2019-05-01T17:04:48.415Z,21.80
2019-05-01T17:07:47.408Z,21.50
2019-05-01T17:10:23.127Z,21.53
2019-05-01T17:12:55.379Z,21.47
2019-05-01T17:15:30.251Z,22.97
2019-05-01T17:17:57.925Z,23.00
2019-05-01T17:20:25.985Z,22.00
2019-05-01T17:22:53.686Z,22.20
2019-05-01T17:25:21.364Z,22.87
2019-05-01T17:27:49.055Z,21.37
2019-05-01T17:30:22.627Z,22.93
2019-05-01T17:32:50.285Z,23.57
2019-05-01T17:35:17.980Z,22.13
2019-05-01T17:37:45.606Z,22.90
2019-05-01T17:40:13.423Z,22.23
2019-05-01T17:42:41.061Z,22.17
2019-05-01T17:45:08.746Z,22.67
2019-05-01T17:47:36.391Z,22.17
2019-05-01T17:50:05.251Z,22.07
2019-05-01T17:52:32.900Z,22.73
2019-05-01T17:55:01.421Z,22.03
2019-05-01T17:57:29.347Z,21.77
2019-05-01T17:59:59.140Z,22.17
2019-05-01T18:02:34.024Z,22.67
2019-05-01T18:05:13.241Z,23.20
2019-05-01T18:07:40.898Z,21.77
2019-05-01T18:10:08.920Z,23.67
2019-05-01T18:12:36.601Z,23.23
2019-05-01T18:15:04.805Z,22.23
2019-05-01T18:17:32.622Z,23.90
2019-05-01T18:20:00.271Z,22.33
2019-05-01T18:22:56.403Z,22.83
2019-05-01T18:25:40.838Z,22.53
2019-05-01T18:28:31.734Z,21.50
2019-05-01T18:30:59.511Z,22.83
2019-05-01T18:33:27.235Z,21.77
2019-05-01T18:35:55.233Z,22.87
2019-05-01T18:38:28.991Z,22.13
2019-05-01T18:41:05.750Z,22.67
2019-05-01T18:43:33.947Z,22.93
2019-05-01T18:46:03.483Z,21.60
2019-05-01T18:48:31.114Z,23.47
2019-05-01T18:50:58.800Z,23.47
2019-05-01T18:53:26.543Z,22.70
2019-05-01T18:55:54.296Z,22.13
2019-05-01T18:58:22.030Z,22.03
2019-05-01T19:00:49.768Z,22.70
2019-05-01T19:03:17.451Z,21.37
2019-05-01T19:05:46.986Z,21.97
2019-05-01T19:08:14.703Z,22.13
2019-05-01T19:10:42.385Z,21.10
2019-05-01T19:13:10.875Z,21.37
2019-05-01T19:15:38.717Z,20.87
2019-05-01T19:18:06.456Z,20.47
2019-05-01T19:20:34.207Z,20.93
2019-05-01T19:23:01.860Z,21.53
2019-05-01T19:25:29.577Z,19.30
2019-05-01T19:27:57.224Z,20.60
2019-05-01T19:30:25.006Z,20.07
2019-05-01T19:32:52.685Z,20.47
2019-05-01T19:35:23.698Z,20.17
2019-05-01T19:37:52.865Z,19.13
2019-05-01T19:40:19.437Z,19.10
2019-05-01T19:42:47.177Z,19.30
2019-05-01T19:45:14.903Z,19.10
2019-05-01T19:47:42.569Z,18.37
2019-05-01T19:50:11.222Z,18.37
2019-05-01T19:52:39.930Z,16.30
2019-05-01T19:55:07.819Z,15.47
2019-05-01T19:57:35.644Z,14.10
2019-05-01T20:00:04.658Z,14.90
2019-05-01T20:02:32.413Z,15.87
2019-05-01T20:05:00.112Z,14.43
2019-05-01T20:07:27.913Z,15.57
2019-05-01T20:09:56.958Z,16.13
2019-05-01T20:12:25.242Z,14.77
2019-05-01T20:14:52.941Z,14.67
2019-05-01T20:17:20.606Z,14.17
2019-05-01T20:19:48.269Z,16.00
2019-05-01T20:22:15.980Z,14.40
2019-05-01T20:24:44.355Z,15.03
2019-05-01T20:27:13.264Z,15.93
2019-05-01T20:29:40.894Z,16.00
2019-05-01T20:32:08.547Z,13.97
2019-05-01T20:34:36.246Z,15.00
2019-05-01T20:37:04.752Z,14.80
2019-05-01T20:39:32.428Z,15.63
2019-05-01T20:42:00.087Z,15.40
2019-05-01T20:44:27.788Z,14.77
2019-05-01T20:46:58.548Z,16.03
2019-05-01T20:49:25.853Z,15.17
2019-05-01T20:51:53.516Z,14.73
2019-05-01T20:54:21.223Z,14.73
2019-05-01T20:56:54.743Z,15.17
2019-05-01T20:59:22.455Z,14.80
2019-05-01T21:01:50.167Z,15.37
2019-05-01T21:04:49.666Z,15.40
2019-05-01T21:07:36.519Z,15.13
2019-05-01T21:10:05.032Z,16.73
2019-05-01T21:12:32.695Z,16.77
2019-05-01T21:15:00.376Z,16.93
2019-05-01T21:17:28.046Z,15.97
2019-05-01T21:19:55.763Z,15.97
2019-05-01T21:22:23.513Z,17.57
2019-05-01T21:24:53.145Z,18.30
2019-05-01T21:27:20.750Z,16.70
2019-05-01T21:29:48.423Z,16.80
2019-05-01T21:32:18.212Z,17.93
2019-05-01T21:34:45.694Z,17.43
2019-05-01T21:37:13.352Z,16.27
2019-05-01T21:39:41.042Z,16.37
2019-05-01T21:42:11.440Z,16.33
2019-05-01T21:44:38.245Z,16.93
2019-05-01T21:47:06.259Z,17.43
2019-05-01T21:49:33.883Z,16.67
2019-05-01T21:52:03.763Z,17.07
2019-05-01T21:54:31.119Z,17.53
2019-05-01T21:56:58.762Z,17.43
2019-05-01T21:59:26.464Z,16.50
2019-05-01T22:01:54.150Z,17.07
2019-05-01T22:04:21.822Z,17.77
2019-05-01T22:06:51.931Z,17.90
2019-05-01T22:09:21.279Z,17.90
2019-05-01T22:11:49.441Z,17.30
2019-05-01T22:14:42.552Z,16.47
2019-05-01T22:17:27.317Z,17.97
2019-05-01T22:19:55.410Z,19.00
2019-05-01T22:22:48.761Z,19.17
2019-05-01T22:25:20.763Z,19.43
2019-05-01T22:27:52.389Z,19.87
2019-05-01T22:30:34.080Z,18.93
2019-05-01T22:33:01.931Z,20.40
2019-05-01T22:35:32.377Z,18.60
2019-05-01T22:38:00.081Z,18.83
2019-05-01T22:40:47.220Z,18.33
2019-05-01T22:43:14.980Z,19.57
2019-05-01T22:45:42.779Z,17.57
2019-05-01T22:48:10.452Z,19.30
2019-05-01T22:50:38.111Z,19.67
2019-05-01T22:53:07.967Z,19.13
2019-05-01T22:55:35.274Z,19.90
2019-05-01T22:58:02.962Z,19.93
2019-05-01T23:00:38.250Z,20.40
2019-05-01T23:03:08.273Z,19.50
2019-05-01T23:05:35.940Z,20.00
2019-05-01T23:08:04.242Z,21.60
2019-05-01T23:10:32.490Z,20.27
2019-05-01T23:13:00.182Z,19.67
2019-05-01T23:15:29.323Z,22.30
2019-05-01T23:17:57.029Z,21.47
2019-05-01T23:20:24.814Z,20.10
2019-05-01T23:22:52.469Z,19.83
2019-05-01T23:25:20.174Z,22.07
2019-05-01T23:27:47.822Z,20.87
2019-05-01T23:30:17.784Z,21.50
2019-05-01T23:32:45.473Z,21.60
2019-05-01T23:35:13.242Z,22.07
2019-05-01T23:37:40.921Z,21.07
2019-05-01T23:40:10.940Z,22.37
2019-05-01T23:42:38.629Z,21.33
2019-05-01T23:45:06.622Z,21.63
2019-05-01T23:47:34.284Z,22.03
2019-05-01T23:50:02.277Z,22.87
2019-05-01T23:52:33.952Z,21.77
2019-05-01T23:54:59.433Z,21.87
2019-05-01T23:57:27.166Z,22.07
2019-05-01T23:59:54.848Z,21.20
